^^
Datos históricos de la estación: Murcia-Puente Tocinos
Diario Informe para Enero 31, 2019 Unidades:  Ambas    Ingés   Métrico
Diario Semanal Mensual Anual
  Máxima: Mínima: Promedio:
Temperatura: 72.1 °F /  22.3 °C 52.5 °F /  11.4 °C 61.3 °F /  16.3 °C
Punto de rocio: 47.7 °F /  8.7 °C 34.9 °F /  1.6 °C 42.1 °F /  5.6 °C
Humedad: 68% 34% 50%
Velocidad viento: 17mph /  27.4km/h - 6.6mph /  10.6km/h
Racha viento: 36mph /  57.9km/h - -
Viento- - SO
Presión: 29.8 in /  1008.2 hPa 29.6 in /  1000.9 hPa -
Precipitación: 0 in /  0.0 mm    
 
 
Tabla de datos para Enero 31, 2019
Hora Temperatura Punto de rocio Presión Viento Velocidad viento Racha viento Humedad Intensidad lluvia(por hora) Nubes
00:04 55.8 °F /  13.2 °C 35.6 °F /  2 °C 29.8in /  1008.2hPa NO 1.8mph /  2.9km/h 5.2mph /  8.4km/h 46.9% 0in /  0.0mm
00:09 55.4 °F /  13 °C 35.6 °F /  2 °C 29.8in /  1008.1hPa ESE 1.9mph /  3.1km/h 5mph /  8km/h 47% 0in /  0.0mm
00:14 55.2 °F /  12.9 °C 35.8 °F /  2.1 °C 29.8in /  1008.1hPa SE 2mph /  3.2km/h 5mph /  8km/h 47.9% 0in /  0.0mm
00:19 55.2 °F /  12.9 °C 35.8 °F /  2.1 °C 29.8in /  1008.1hPa SSE 2.6mph /  4.2km/h 5.2mph /  8.4km/h 47.8% 0in /  0.0mm
00:24 55.4 °F /  13 °C 35.6 °F /  2 °C 29.8in /  1008.0hPa Sur 3.1mph /  5km/h 5.2mph /  8.4km/h 47.2% 0in /  0.0mm
00:29 55.6 °F /  13.1 °C 35.6 °F /  2 °C 29.8in /  1008.0hPa SSO 3.4mph /  5.4km/h 5.2mph /  8.4km/h 47% 0in /  0.0mm
00:34 55.6 °F /  13.1 °C 35.2 °F /  1.8 °C 29.8in /  1008.0hPa Sur 3.6mph /  5.8km/h 5.4mph /  8.7km/h 46.1% 0in /  0.0mm
00:39 55.8 °F /  13.2 °C 35.2 °F /  1.8 °C 29.8in /  1007.9hPa SSO 3.6mph /  5.8km/h 5mph /  8km/h 46% 0in /  0.0mm
00:44 55.8 °F /  13.2 °C 35.2 °F /  1.8 °C 29.8in /  1007.9hPa SSO 3.6mph /  5.8km/h 5mph /  8km/h 46% 0in /  0.0mm
00:49 55.8 °F /  13.2 °C 35.2 °F /  1.8 °C 29.8in /  1007.9hPa SO 2.9mph /  4.7km/h 5mph /  8km/h 45.9% 0in /  0.0mm
00:54 55.9 °F /  13.3 °C 35.1 °F /  1.7 °C 29.8in /  1007.6hPa SO 2.4mph /  3.9km/h 5mph /  8km/h 45.5% 0in /  0.0mm
00:59 55.9 °F /  13.3 °C 34.9 °F /  1.6 °C 29.8in /  1007.6hPa SO 2.4mph /  3.9km/h 5mph /  8km/h 45% 0in /  0.0mm
01:04 55.9 °F /  13.3 °C 35.1 °F /  1.7 °C 29.8in /  1007.6hPa SO 2.4mph /  3.9km/h 4.6mph /  7.4km/h 45.3% 0in /  0.0mm
01:09 55.9 °F /  13.3 °C 36 °F /  2.2 °C 29.8in /  1007.5hPa SO 2.7mph /  4.3km/h 5mph /  8km/h 46.9% 0in /  0.0mm
01:14 55.8 °F /  13.2 °C 36.3 °F /  2.4 °C 29.8in /  1007.5hPa SO 2.9mph /  4.7km/h 5mph /  8km/h 47.7% 0in /  0.0mm
01:19 55.6 °F /  13.1 °C 36.1 °F /  2.3 °C 29.8in /  1007.5hPa SO 2.4mph /  3.8km/h 3.6mph /  5.8km/h 47.8% 0in /  0.0mm
01:24 55.6 °F /  13.1 °C 36.1 °F /  2.3 °C 29.7in /  1007.1hPa SO 2mph /  3.2km/h 4mph /  6.4km/h 48% 0in /  0.0mm
01:29 55.2 °F /  12.9 °C 36.1 °F /  2.3 °C 29.7in /  1007.1hPa SO 2mph /  3.2km/h 4mph /  6.4km/h 48.3% 0in /  0.0mm
01:34 55.2 °F /  12.9 °C 36 °F /  2.2 °C 29.7in /  1007.1hPa SO 2mph /  3.2km/h 5mph /  8km/h 48% 0in /  0.0mm
01:39 55 °F /  12.8 °C 35.8 °F /  2.1 °C 29.7in /  1006.9hPa SO 2.5mph /  4km/h 5mph /  8km/h 48% 0in /  0.0mm
01:44 55 °F /  12.8 °C 35.6 °F /  2 °C 29.7in /  1006.9hPa OSO 2.9mph /  4.7km/h 5.2mph /  8.4km/h 47.7% 0in /  0.0mm
01:49 55 °F /  12.8 °C 35.4 °F /  1.9 °C 29.7in /  1006.9hPa OSO 2.6mph /  4.2km/h 5mph /  8km/h 47.3% 0in /  0.0mm
01:54 55.2 °F /  12.9 °C 35.2 °F /  1.8 °C 29.7in /  1006.7hPa OSO 2.4mph /  3.9km/h 5mph /  8km/h 47% 0in /  0.0mm
01:59 55.2 °F /  12.9 °C 35.2 °F /  1.8 °C 29.7in /  1006.7hPa OSO 2.2mph /  3.5km/h 5mph /  8km/h 47% 0in /  0.0mm
02:04 55 °F /  12.8 °C 35.4 °F /  1.9 °C 29.7in /  1006.7hPa ONO 2mph /  3.2km/h 4mph /  6.4km/h 47.5% 0in /  0.0mm
02:09 55 °F /  12.8 °C 35.8 °F /  2.1 °C 29.7in /  1006.5hPa ONO 2mph /  3.2km/h 3.6mph /  5.8km/h 48.3% 0in /  0.0mm
02:14 54.9 °F /  12.7 °C 36.1 °F /  2.3 °C 29.7in /  1006.5hPa NO 2mph /  3.2km/h 4mph /  6.4km/h 49.2% 0in /  0.0mm
02:19 54.5 °F /  12.5 °C 36.3 °F /  2.4 °C 29.7in /  1006.5hPa North 1.9mph /  3km/h 3.5mph /  5.6km/h 50.3% 0in /  0.0mm
02:24 54.1 °F /  12.3 °C 36.5 °F /  2.5 °C 29.7in /  1006.3hPa North 1.8mph /  2.9km/h 3.5mph /  5.6km/h 51% 0in /  0.0mm
02:29 54 °F /  12.2 °C 36.3 °F /  2.4 °C 29.7in /  1006.3hPa North 1.6mph /  2.5km/h 3.6mph /  5.8km/h 51.3% 0in /  0.0mm
02:34 54 °F /  12.2 °C 36.1 °F /  2.3 °C 29.7in /  1006.3hPa NNO 1.4mph /  2.2km/h 4mph /  6.4km/h 51% 0in /  0.0mm
02:39 53.8 °F /  12.1 °C 36.1 °F /  2.3 °C 29.7in /  1005.9hPa NNO 1.6mph /  2.6km/h 4mph /  6.4km/h 51% 0in /  0.0mm
02:44 53.8 °F /  12.1 °C 36.5 °F /  2.5 °C 29.7in /  1005.9hPa NNE 1.8mph /  2.9km/h 4mph /  6.4km/h 51.9% 0in /  0.0mm
02:49 53.8 °F /  12.1 °C 37 °F /  2.8 °C 29.7in /  1005.9hPa SSE 2.1mph /  3.4km/h 5.8mph /  9.3km/h 53.1% 0in /  0.0mm
02:54 53.8 °F /  12.1 °C 37 °F /  2.8 °C 29.7in /  1005.7hPa SSE 2.4mph /  3.9km/h 6mph /  9.7km/h 53% 0in /  0.0mm
02:59 53.8 °F /  12.1 °C 37 °F /  2.8 °C 29.7in /  1005.7hPa SSE 2.7mph /  4.4km/h 5mph /  8km/h 53% 0in /  0.0mm
03:04 53.8 °F /  12.1 °C 37 °F /  2.8 °C 29.7in /  1005.7hPa SO 2.9mph /  4.6km/h 5mph /  8km/h 53% 0in /  0.0mm
03:09 53.6 °F /  12 °C 37 °F /  2.8 °C 29.7in /  1005.5hPa SO 2.6mph /  4.2km/h 5.8mph /  9.3km/h 53.1% 0in /  0.0mm
03:14 53.8 °F /  12.1 °C 37 °F /  2.8 °C 29.7in /  1005.5hPa SO 2.4mph /  3.9km/h 6.2mph /  10km/h 53% 0in /  0.0mm
03:19 54 °F /  12.2 °C 37.2 °F /  2.9 °C 29.7in /  1005.6hPa SO 3.3mph /  5.3km/h 6.2mph /  10km/h 53% 0in /  0.0mm
03:24 54.3 °F /  12.4 °C 37.2 °F /  2.9 °C 29.7in /  1005.6hPa SO 4mph /  6.5km/h 6.9mph /  11.1km/h 52.3% 0in /  0.0mm
03:29 54.7 °F /  12.6 °C 37.4 °F /  3 °C 29.7in /  1005.6hPa SO 4.4mph /  7.1km/h 7mph /  11.3km/h 52% 0in /  0.0mm
03:34 54.9 °F /  12.7 °C 37.6 °F /  3.1 °C 29.7in /  1005.6hPa SO 4.7mph /  7.6km/h 6mph /  9.7km/h 52% 0in /  0.0mm
03:39 55 °F /  12.8 °C 37.8 °F /  3.2 °C 29.7in /  1005.2hPa SO 4.5mph /  7.2km/h 6.9mph /  11.1km/h 52% 0in /  0.0mm
03:44 55 °F /  12.8 °C 37.8 °F /  3.2 °C 29.7in /  1005.2hPa SO 4.3mph /  6.9km/h 7mph /  11.3km/h 52% 0in /  0.0mm
03:49 55.2 °F /  12.9 °C 37.9 °F /  3.3 °C 29.7in /  1005.2hPa SO 3.5mph /  5.7km/h 5mph /  8km/h 52% 0in /  0.0mm
03:54 55.2 °F /  12.9 °C 38.1 °F /  3.4 °C 29.7in /  1005.1hPa SO 2.9mph /  4.7km/h 4mph /  6.4km/h 52.5% 0in /  0.0mm
03:59 54.7 °F /  12.6 °C 38.1 °F /  3.4 °C 29.7in /  1005.1hPa ESE 2.2mph /  3.6km/h 4.6mph /  7.4km/h 53.4% 0in /  0.0mm
04:04 54.1 °F /  12.3 °C 37.9 °F /  3.3 °C 29.7in /  1005.1hPa Este 1.8mph /  2.9km/h 5mph /  8km/h 54.5% 0in /  0.0mm
04:09 53.8 °F /  12.1 °C 38.1 °F /  3.4 °C 29.7in /  1004.9hPa Este 1.6mph /  2.5km/h 2.3mph /  3.7km/h 55.4% 0in /  0.0mm
04:14 53.4 °F /  11.9 °C 38.1 °F /  3.4 °C 29.7in /  1004.9hPa Este 1.4mph /  2.2km/h 2.3mph /  3.7km/h 56% 0in /  0.0mm
04:19 53.4 °F /  11.9 °C 38.5 °F /  3.6 °C 29.7in /  1004.9hPa Este 0.6mph /  1km/h 1.4mph /  2.3km/h 56.8% 0in /  0.0mm
04:24 53.4 °F /  11.9 °C 38.7 °F /  3.7 °C 29.7in /  1004.6hPa Calm   1.4mph /  2.3km/h 57% 0in /  0.0mm
04:29 53.4 °F /  11.9 °C 38.7 °F /  3.7 °C 29.7in /  1004.6hPa Calm   2.9mph /  4.7km/h 57% 0in /  0.0mm
04:34 53.4 °F /  11.9 °C 38.7 °F /  3.7 °C 29.7in /  1004.6hPa Calm   3mph /  4.8km/h 57% 0in /  0.0mm
04:39 53.4 °F /  11.9 °C 38.7 °F /  3.7 °C 29.7in /  1004.4hPa Este 1mph /  1.6km/h 4.6mph /  7.4km/h 57% 0in /  0.0mm
04:44 53.4 °F /  11.9 °C 39 °F /  3.9 °C 29.7in /  1004.4hPa Este 1.8mph /  2.9km/h 5mph /  8km/h 58% 0in /  0.0mm
04:49 53.4 °F /  11.9 °C 39 °F /  3.9 °C 29.7in /  1004.4hPa Este 1.9mph /  3.1km/h 3.5mph /  5.6km/h 58% 0in /  0.0mm
04:54 53.4 °F /  11.9 °C 39 °F /  3.9 °C 29.7in /  1004.2hPa Este 2mph /  3.2km/h 3.5mph /  5.6km/h 58% 0in /  0.0mm
04:59 53.6 °F /  12 °C 39.2 °F /  4 °C 29.7in /  1004.2hPa Este 1.9mph /  3km/h 3mph /  4.8km/h 58% 0in /  0.0mm
05:04 53.6 °F /  12 °C 39.2 °F /  4 °C 29.7in /  1004.2hPa Este 1.8mph /  2.9km/h 2.9mph /  4.7km/h 58% 0in /  0.0mm
05:09 53.8 °F /  12.1 °C 39.4 °F /  4.1 °C 29.7in /  1004.1hPa Este 1.6mph /  2.5km/h 3mph /  4.8km/h 58% 0in /  0.0mm
05:14 53.8 °F /  12.1 °C 39.4 °F /  4.1 °C 29.7in /  1004.1hPa Este 1.4mph /  2.2km/h 2mph /  3.2km/h 58% 0in /  0.0mm
05:19 53.8 °F /  12.1 °C 39.4 °F /  4.1 °C 29.7in /  1004.1hPa Este 0.6mph /  1km/h 3.1mph /  5km/h 58.3% 0in /  0.0mm
05:24 53.8 °F /  12.1 °C 39.7 °F /  4.3 °C 29.7in /  1004.0hPa Calm   4.7mph /  7.6km/h 59% 0in /  0.0mm
05:29 54 °F /  12.2 °C 39.9 °F /  4.4 °C 29.7in /  1004.0hPa OSO 1.1mph /  1.8km/h 5.8mph /  9.3km/h 59% 0in /  0.0mm
05:34 54.1 °F /  12.3 °C 39.9 °F /  4.4 °C 29.7in /  1004.0hPa OSO 2mph /  3.2km/h 6mph /  9.7km/h 58.7% 0in /  0.0mm
05:39 54.3 °F /  12.4 °C 39.7 °F /  4.3 °C 29.6in /  1003.8hPa Oeste 2.2mph /  3.6km/h 5mph /  8km/h 58% 0in /  0.0mm
05:44 54.5 °F /  12.5 °C 40.1 °F /  4.5 °C 29.6in /  1003.8hPa Oeste 2.4mph /  3.9km/h 5mph /  8km/h 58% 0in /  0.0mm
05:49 54.7 °F /  12.6 °C 40.3 °F /  4.6 °C 29.6in /  1003.8hPa Oeste 1.8mph /  2.9km/h 3.5mph /  5.6km/h 58% 0in /  0.0mm
05:54 54.5 °F /  12.5 °C 39.9 °F /  4.4 °C 29.6in /  1003.7hPa North 1.4mph /  2.2km/h 4.6mph /  7.4km/h 58% 0in /  0.0mm
05:59 54.1 °F /  12.3 °C 39.7 °F /  4.3 °C 29.6in /  1003.7hPa NE 1.6mph /  2.6km/h 5mph /  8km/h 58.3% 0in /  0.0mm
06:04 54 °F /  12.2 °C 39.9 °F /  4.4 °C 29.6in /  1003.8hPa NE 1.8mph /  2.9km/h 2.3mph /  3.7km/h 59% 0in /  0.0mm
06:09 54 °F /  12.2 °C 39.9 °F /  4.4 °C 29.6in /  1003.8hPa NE 0.8mph /  1.3km/h 4mph /  6.4km/h 59% 0in /  0.0mm
06:14 54 °F /  12.2 °C 39.9 °F /  4.4 °C 29.6in /  1003.8hPa Calm   5mph /  8km/h 59% 0in /  0.0mm
06:19 54.1 °F /  12.3 °C 40.1 °F /  4.5 °C 29.6in /  1003.8hPa ONO 0.8mph /  1.3km/h 5mph /  8km/h 59% 0in /  0.0mm
06:24 54.1 °F /  12.3 °C 40.1 °F /  4.5 °C 29.6in /  1003.8hPa ONO 1.4mph /  2.2km/h 2mph /  3.2km/h 59% 0in /  0.0mm
06:29 54.1 °F /  12.3 °C 40.1 °F /  4.5 °C 29.6in /  1003.8hPa ONO 0.6mph /  1km/h 2.9mph /  4.7km/h 59% 0in /  0.0mm
06:34 54.1 °F /  12.3 °C 40.1 °F /  4.5 °C 29.6in /  1003.8hPa Calm   4mph /  6.4km/h 59% 0in /  0.0mm
06:39 54 °F /  12.2 °C 40.1 °F /  4.5 °C 29.6in /  1003.7hPa ONO 1.1mph /  1.8km/h 4.6mph /  7.4km/h 59.4% 0in /  0.0mm
06:44 54 °F /  12.2 °C 40.5 °F /  4.7 °C 29.6in /  1003.7hPa ONO 2mph /  3.2km/h 5mph /  8km/h 60% 0in /  0.0mm
06:49 54 °F /  12.2 °C 40.5 °F /  4.7 °C 29.6in /  1003.7hPa ONO 0.9mph /  1.4km/h 3.1mph /  5km/h 60% 0in /  0.0mm
06:54 54.1 °F /  12.3 °C 40.1 °F /  4.5 °C 29.6in /  1003.7hPa Calm   3.5mph /  5.6km/h 59.3% 0in /  0.0mm
06:59 54.1 °F /  12.3 °C 40.1 °F /  4.5 °C 29.6in /  1003.7hPa ONO 0.9mph /  1.4km/h 3.6mph /  5.8km/h 59% 0in /  0.0mm
07:04 54.1 °F /  12.3 °C 40.1 °F /  4.5 °C 29.6in /  1003.7hPa ONO 1.4mph /  2.2km/h 4mph /  6.4km/h 59% 0in /  0.0mm
07:09 54.3 °F /  12.4 °C 40.3 °F /  4.6 °C 29.6in /  1003.6hPa ONO 1.7mph /  2.8km/h 4mph /  6.4km/h 59% 0in /  0.0mm
07:14 54.3 °F /  12.4 °C 40.3 °F /  4.6 °C 29.6in /  1003.6hPa ONO 2mph /  3.2km/h 4.6mph /  7.4km/h 59% 0in /  0.0mm
07:19 54.3 °F /  12.4 °C 40.5 °F /  4.7 °C 29.6in /  1003.6hPa ONO 1.9mph /  3km/h 5mph /  8km/h 59.6% 0in /  0.0mm
07:24 54.3 °F /  12.4 °C 40.6 °F /  4.8 °C 29.6in /  1003.6hPa ONO 1.8mph /  2.9km/h 3mph /  4.8km/h 60% 0in /  0.0mm
07:29 54.1 °F /  12.3 °C 40.6 °F /  4.8 °C 29.6in /  1003.6hPa ONO 1.8mph /  2.9km/h 3mph /  4.8km/h 60% 0in /  0.0mm
07:34 54 °F /  12.2 °C 40.6 °F /  4.8 °C 29.6in /  1003.9hPa ONO 1.8mph /  2.9km/h 3mph /  4.8km/h 60.5% 0in /  0.0mm
07:39 54 °F /  12.2 °C 40.8 °F /  4.9 °C 29.6in /  1003.9hPa ONO 1.6mph /  2.5km/h 2.4mph /  3.9km/h 61% 0in /  0.0mm
07:44 53.8 °F /  12.1 °C 40.8 °F /  4.9 °C 29.6in /  1003.9hPa ONO 1.4mph /  2.2km/h 3.5mph /  5.6km/h 61.5% 0in /  0.0mm
07:49 53.6 °F /  12 °C 41 °F /  5 °C 29.7in /  1004.0hPa ONO 1.7mph /  2.8km/h 3.6mph /  5.8km/h 62% 0in /  0.0mm
07:54 53.6 °F /  12 °C 40.8 °F /  4.9 °C 29.7in /  1004.0hPa Oeste 2mph /  3.2km/h 4mph /  6.4km/h 62% 0in /  0.0mm
07:59 53.4 °F /  11.9 °C 40.6 °F /  4.8 °C 29.7in /  1004.0hPa Oeste 1.9mph /  3km/h 4mph /  6.4km/h 62% 0in /  0.0mm
08:04 53.4 °F /  11.9 °C 41.2 °F /  5.1 °C 29.7in /  1004.0hPa Oeste 1.8mph /  2.9km/h 3.6mph /  5.8km/h 63% 0in /  0.0mm
08:09 53.2 °F /  11.8 °C 41 °F /  5 °C 29.6in /  1003.9hPa Oeste 1.8mph /  2.9km/h 4mph /  6.4km/h 63% 0in /  0.0mm
08:14 53.2 °F /  11.8 °C 41 °F /  5 °C 29.6in /  1003.9hPa Oeste 1.8mph /  2.9km/h 3mph /  4.8km/h 63% 0in /  0.0mm
08:19 53.1 °F /  11.7 °C 41 °F /  5 °C 29.6in /  1003.9hPa Oeste 0.7mph /  1.2km/h 2.4mph /  3.9km/h 63.7% 0in /  0.0mm
08:24 52.9 °F /  11.6 °C 41 °F /  5 °C 29.6in /  1003.9hPa Calm   4.6mph /  7.4km/h 64% 0in /  0.0mm
08:29 52.9 °F /  11.6 °C 41 °F /  5 °C 29.6in /  1003.9hPa Oeste 0.7mph /  1.2km/h 5mph /  8km/h 64% 0in /  0.0mm
08:34 52.9 °F /  11.6 °C 41.4 °F /  5.2 °C 29.6in /  1003.9hPa Oeste 1.4mph /  2.2km/h 2.9mph /  4.7km/h 64.8% 0in /  0.0mm
08:39 53.1 °F /  11.7 °C 41.5 °F /  5.3 °C 29.6in /  1003.9hPa Oeste 0.6mph /  1km/h 3.6mph /  5.8km/h 65% 0in /  0.0mm
08:44 53.2 °F /  11.8 °C 41.7 °F /  5.4 °C 29.6in /  1003.9hPa Calm   4mph /  6.4km/h 65% 0in /  0.0mm
08:49 53.2 °F /  11.8 °C 41.9 °F /  5.5 °C 29.7in /  1004.0hPa Oeste 1mph /  1.6km/h 3mph /  4.8km/h 65% 0in /  0.0mm
08:54 53.4 °F /  11.9 °C 41.7 °F /  5.4 °C 29.7in /  1004.0hPa Oeste 1.8mph /  2.9km/h 3.5mph /  5.6km/h 64.4% 0in /  0.0mm
08:59 53.2 °F /  11.8 °C 41.5 °F /  5.3 °C 29.7in /  1004.0hPa North 1.8mph /  2.9km/h 4.6mph /  7.4km/h 64.5% 0in /  0.0mm
09:04 52.9 °F /  11.6 °C 41.5 °F /  5.3 °C 29.7in /  1004.0hPa NNE 1.8mph /  2.9km/h 5mph /  8km/h 65.3% 0in /  0.0mm
09:09 52.5 °F /  11.4 °C 41.5 °F /  5.3 °C 29.7in /  1004.0hPa North 1.9mph /  3.1km/h 5mph /  8km/h 66.3% 0in /  0.0mm
09:14 52.5 °F /  11.4 °C 41.9 °F /  5.5 °C 29.7in /  1004.0hPa NO 2mph /  3.2km/h 5mph /  8km/h 67% 0in /  0.0mm
09:19 52.5 °F /  11.4 °C 41.9 °F /  5.5 °C 29.7in /  1004.0hPa NO 2.2mph /  3.6km/h 5mph /  8km/h 67% 0in /  0.0mm
09:24 52.5 °F /  11.4 °C 42.3 °F /  5.7 °C 29.6in /  1003.9hPa ONO 2.4mph /  3.9km/h 5mph /  8km/h 67.8% 0in /  0.0mm
09:29 52.7 °F /  11.5 °C 42.4 °F /  5.8 °C 29.6in /  1003.9hPa ONO 2.4mph /  3.9km/h 5.8mph /  9.3km/h 68% 0in /  0.0mm
09:34 52.9 °F /  11.6 °C 42.3 °F /  5.7 °C 29.7in /  1004.1hPa NE 2.4mph /  3.9km/h 6mph /  9.7km/h 67.3% 0in /  0.0mm
09:39 52.9 °F /  11.6 °C 42.3 °F /  5.7 °C 29.7in /  1004.1hPa NE 2.2mph /  3.5km/h 5.9mph /  9.5km/h 67.2% 0in /  0.0mm
09:44 53.1 °F /  11.7 °C 42.3 °F /  5.7 °C 29.7in /  1004.1hPa ENE 2mph /  3.2km/h 6mph /  9.7km/h 67.1% 0in /  0.0mm
09:49 53.2 °F /  11.8 °C 42.4 °F /  5.8 °C 29.7in /  1004.1hPa ENE 2mph /  3.2km/h 4.6mph /  7.4km/h 67% 0in /  0.0mm
09:54 53.4 °F /  11.9 °C 42.8 °F /  6 °C 29.7in /  1004.1hPa ENE 2mph /  3.2km/h 5mph /  8km/h 67% 0in /  0.0mm
09:59 54 °F /  12.2 °C 43.5 °F /  6.4 °C 29.7in /  1004.1hPa NO 1.6mph /  2.6km/h 10mph /  16.1km/h 67.7% 0in /  0.0mm
10:04 55.9 °F /  13.3 °C 45.1 °F /  7.3 °C 29.7in /  1004.3hPa OSO 1.4mph /  2.2km/h 11.8mph /  19km/h 66.9% 0in /  0.0mm
10:09 57.7 °F /  14.3 °C 45 °F /  7.2 °C 29.7in /  1004.3hPa Oeste 3.2mph /  5.2km/h 12mph /  19.3km/h 62.5% 0in /  0.0mm
10:14 58.8 °F /  14.9 °C 45.5 °F /  7.5 °C 29.7in /  1004.3hPa SSO 4.7mph /  7.6km/h 11.2mph /  18km/h 61.3% 0in /  0.0mm
10:19 60.3 °F /  15.7 °C 45.9 °F /  7.7 °C 29.7in /  1004.3hPa SO 5.1mph /  8.2km/h 17mph /  27.4km/h 59% 0in /  0.0mm
10:24 61.5 °F /  16.4 °C 46 °F /  7.8 °C 29.7in /  1004.2hPa SSO 5.4mph /  8.7km/h 17.3mph /  27.8km/h 56.7% 0in /  0.0mm
10:29 62.4 °F /  16.9 °C 46 °F /  7.8 °C 29.7in /  1004.2hPa SO 7.5mph /  12.1km/h 17mph /  27.4km/h 55.3% 0in /  0.0mm
10:34 63 °F /  17.2 °C 46 °F /  7.8 °C 29.7in /  1004.2hPa SO 9.2mph /  14.8km/h 16mph /  25.7km/h 54.1% 0in /  0.0mm
10:39 63.3 °F /  17.4 °C 46 °F /  7.8 °C 29.7in /  1004.0hPa SO 8.6mph /  13.8km/h 15mph /  24.1km/h 53.4% 0in /  0.0mm
10:44 63.7 °F /  17.6 °C 46 °F /  7.8 °C 29.7in /  1004.0hPa SO 8.1mph /  13km/h 15mph /  24.1km/h 52.4% 0in /  0.0mm
10:49 64 °F /  17.8 °C 45.9 °F /  7.7 °C 29.7in /  1004.1hPa SO 8.3mph /  13.4km/h 17.5mph /  28.2km/h 51.7% 0in /  0.0mm
10:54 64.2 °F /  17.9 °C 45.7 °F /  7.6 °C 29.7in /  1004.1hPa SO 8.5mph /  13.7km/h 17.3mph /  27.8km/h 51% 0in /  0.0mm
10:59 64.2 °F /  17.9 °C 45.7 °F /  7.6 °C 29.7in /  1004.1hPa SO 8.5mph /  13.7km/h 15mph /  24.1km/h 51% 0in /  0.0mm
11:04 64 °F /  17.8 °C 45.5 °F /  7.5 °C 29.7in /  1004.3hPa SO 8.5mph /  13.7km/h 16.1mph /  25.9km/h 51% 0in /  0.0mm
11:09 64 °F /  17.8 °C 45.9 °F /  7.7 °C 29.7in /  1004.3hPa SO 8.6mph /  13.9km/h 16mph /  25.7km/h 51.7% 0in /  0.0mm
11:14 64 °F /  17.8 °C 46 °F /  7.8 °C 29.7in /  1004.3hPa SO 8.7mph /  14km/h 16.1mph /  25.9km/h 52% 0in /  0.0mm
11:19 64 °F /  17.8 °C 45.9 °F /  7.7 °C 29.7in /  1004.4hPa SO 8.7mph /  14km/h 17.5mph /  28.2km/h 51.6% 0in /  0.0mm
11:24 64.2 °F /  17.9 °C 45.7 °F /  7.6 °C 29.7in /  1004.4hPa SO 8.7mph /  14km/h 17.3mph /  27.8km/h 51.1% 0in /  0.0mm
11:29 64.2 °F /  17.9 °C 45.9 °F /  7.7 °C 29.7in /  1004.4hPa SO 9.3mph /  14.9km/h 17.3mph /  27.8km/h 51% 0in /  0.0mm
11:34 64.4 °F /  18 °C 45.9 °F /  7.7 °C 29.7in /  1004.4hPa SO 9.7mph /  15.6km/h 17.3mph /  27.8km/h 51% 0in /  0.0mm
11:39 64.6 °F /  18.1 °C 46 °F /  7.8 °C 29.7in /  1004.3hPa SO 9.4mph /  15.1km/h 17.3mph /  27.8km/h 51% 0in /  0.0mm
11:44 64.6 °F /  18.1 °C 46 °F /  7.8 °C 29.7in /  1004.3hPa SSO 9.2mph /  14.8km/h 18.4mph /  29.6km/h 51% 0in /  0.0mm
11:49 64.8 °F /  18.2 °C 46.2 °F /  7.9 °C 29.7in /  1004.5hPa SO 9.2mph /  14.8km/h 18mph /  29km/h 51% 0in /  0.0mm
11:54 64.8 °F /  18.2 °C 46.2 °F /  7.9 °C 29.7in /  1004.5hPa SO 9.2mph /  14.8km/h 14mph /  22.5km/h 51% 0in /  0.0mm
11:59 64.9 °F /  18.3 °C 46.4 °F /  8 °C 29.7in /  1004.5hPa SO 8.5mph /  13.7km/h 14mph /  22.5km/h 51% 0in /  0.0mm
12:04 64.9 °F /  18.3 °C 46.4 °F /  8 °C 29.7in /  1004.6hPa SO 8.1mph /  13km/h 15mph /  24.1km/h 51% 0in /  0.0mm
12:09 64.9 °F /  18.3 °C 46.4 °F /  8 °C 29.7in /  1004.6hPa SO 8.7mph /  14km/h 19.7mph /  31.7km/h 51% 0in /  0.0mm
12:14 65.1 °F /  18.4 °C 46.6 °F /  8.1 °C 29.7in /  1004.6hPa SO 9.2mph /  14.8km/h 20mph /  32.2km/h 51% 0in /  0.0mm
12:19 65.1 °F /  18.4 °C 46.4 °F /  8 °C 29.7in /  1004.7hPa SO 8.9mph /  14.4km/h 20mph /  32.2km/h 51% 0in /  0.0mm
12:24 64.9 °F /  18.3 °C 46.9 °F /  8.3 °C 29.7in /  1004.7hPa SO 8.7mph /  14km/h 17mph /  27.4km/h 51.9% 0in /  0.0mm
12:29 64.9 °F /  18.3 °C 46.9 °F /  8.3 °C 29.7in /  1004.7hPa SO 9.3mph /  14.9km/h 16mph /  25.7km/h 52% 0in /  0.0mm
12:34 64.9 °F /  18.3 °C 46.9 °F /  8.3 °C 29.7in /  1004.7hPa SSO 9.7mph /  15.6km/h 17.5mph /  28.2km/h 52% 0in /  0.0mm
12:39 65.3 °F /  18.5 °C 47.1 °F /  8.4 °C 29.7in /  1004.2hPa SO 9.9mph /  15.9km/h 18.5mph /  29.8km/h 51.7% 0in /  0.0mm
12:44 65.7 °F /  18.7 °C 46.9 °F /  8.3 °C 29.7in /  1004.2hPa SSO 10mph /  16.1km/h 19mph /  30.6km/h 50.8% 0in /  0.0mm
12:49 65.8 °F /  18.8 °C 47.1 °F /  8.4 °C 29.7in /  1004.2hPa SO 9.8mph /  15.8km/h 17mph /  27.4km/h 50.5% 0in /  0.0mm
12:54 66.2 °F /  19 °C 46.9 °F /  8.3 °C 29.7in /  1004.0hPa SSO 9.7mph /  15.6km/h 15.9mph /  25.6km/h 50% 0in /  0.0mm
12:59 66.7 °F /  19.3 °C 47.1 °F /  8.4 °C 29.7in /  1004.0hPa SSO 9.4mph /  15.1km/h 19.7mph /  31.7km/h 49.2% 0in /  0.0mm
13:04 67.5 °F /  19.7 °C 47.1 °F /  8.4 °C 29.7in /  1004.0hPa SSO 9.2mph /  14.8km/h 21.9mph /  35.2km/h 48.3% 0in /  0.0mm
13:09 67.5 °F /  19.7 °C 47.1 °F /  8.4 °C 29.6in /  1003.8hPa SO 9.8mph /  15.7km/h 22mph /  35.4km/h 48% 0in /  0.0mm
13:14 67.6 °F /  19.8 °C 47.3 °F /  8.5 °C 29.6in /  1003.8hPa SO 10.2mph /  16.4km/h 21.9mph /  35.2km/h 47.9% 0in /  0.0mm
13:19 67.8 °F /  19.9 °C 47.3 °F /  8.5 °C 29.6in /  1003.8hPa SO 11.5mph /  18.5km/h 23.7mph /  38.1km/h 47.9% 0in /  0.0mm
13:24 68.4 °F /  20.2 °C 47.5 °F /  8.6 °C 29.6in /  1003.4hPa SSO 12.5mph /  20.1km/h 24.2mph /  38.9km/h 47.2% 0in /  0.0mm
13:29 69.1 °F /  20.6 °C 47.7 °F /  8.7 °C 29.6in /  1003.4hPa SSO 11mph /  17.7km/h 24mph /  38.6km/h 46.6% 0in /  0.0mm
13:34 68.9 °F /  20.5 °C 47.3 °F /  8.5 °C 29.6in /  1003.4hPa SSO 9.7mph /  15.6km/h 22mph /  35.4km/h 46% 0in /  0.0mm
13:39 68.7 °F /  20.4 °C 47.1 °F /  8.4 °C 29.6in /  1003.2hPa SO 11.8mph /  19km/h 21mph /  33.8km/h 46.1% 0in /  0.0mm
13:44 68.9 °F /  20.5 °C 47.5 °F /  8.6 °C 29.6in /  1003.2hPa SSO 13.5mph /  21.7km/h 18.5mph /  29.8km/h 46.3% 0in /  0.0mm
13:49 69.3 °F /  20.7 °C 47.5 °F /  8.6 °C 29.6in /  1003.2hPa SO 11.7mph /  18.8km/h 19mph /  30.6km/h 45.8% 0in /  0.0mm
13:54 69.3 °F /  20.7 °C 47.3 °F /  8.5 °C 29.6in /  1003.1hPa SO 10.2mph /  16.4km/h 20.7mph /  33.3km/h 45.6% 0in /  0.0mm
13:59 69.3 °F /  20.7 °C 47.1 °F /  8.4 °C 29.6in /  1003.1hPa SO 10.8mph /  17.4km/h 21mph /  33.8km/h 45.4% 0in /  0.0mm
14:04 69.4 °F /  20.8 °C 47.1 °F /  8.4 °C 29.6in /  1003.1hPa SSO 11.2mph /  18km/h 21mph /  33.8km/h 45% 0in /  0.0mm
14:09 69.4 °F /  20.8 °C 47.1 °F /  8.4 °C 29.6in /  1002.9hPa SSO 10.9mph /  17.6km/h 22.3mph /  35.9km/h 45% 0in /  0.0mm
14:14 69.3 °F /  20.7 °C 46.9 °F /  8.3 °C 29.6in /  1002.9hPa SSO 10.7mph /  17.2km/h 22mph /  35.4km/h 45% 0in /  0.0mm
14:19 69.1 °F /  20.6 °C 46.8 °F /  8.2 °C 29.6in /  1002.9hPa SSO 11.3mph /  18.2km/h 22mph /  35.4km/h 45% 0in /  0.0mm
14:24 68.9 °F /  20.5 °C 47.1 °F /  8.4 °C 29.6in /  1002.6hPa SO 11.8mph /  19km/h 17mph /  27.4km/h 45.6% 0in /  0.0mm
14:29 68.7 °F /  20.4 °C 46.8 °F /  8.2 °C 29.6in /  1002.6hPa SSO 10.8mph /  17.4km/h 19mph /  30.6km/h 45.4% 0in /  0.0mm
14:34 68.7 °F /  20.4 °C 47.1 °F /  8.4 °C 29.6in /  1002.6hPa SO 10mph /  16.1km/h 19mph /  30.6km/h 45.9% 0in /  0.0mm
14:39 68.7 °F /  20.4 °C 46.8 °F /  8.2 °C 29.6in /  1002.6hPa SSO 9.8mph /  15.8km/h 18.5mph /  29.8km/h 45.2% 0in /  0.0mm
14:44 69.1 °F /  20.6 °C 46.8 °F /  8.2 °C 29.6in /  1002.6hPa SSO 9.7mph /  15.6km/h 19mph /  30.6km/h 45% 0in /  0.0mm
14:49 69.3 °F /  20.7 °C 46.9 °F /  8.3 °C 29.6in /  1002.6hPa SO 8.8mph /  14.2km/h 13mph /  20.9km/h 45% 0in /  0.0mm
14:54 69.4 °F /  20.8 °C 47.1 °F /  8.4 °C 29.6in /  1002.2hPa SO 8.1mph /  13km/h 17.5mph /  28.2km/h 45% 0in /  0.0mm
14:59 69.4 °F /  20.8 °C 47.1 °F /  8.4 °C 29.6in /  1002.2hPa SSO 7.8mph /  12.6km/h 17.3mph /  27.8km/h 45% 0in /  0.0mm
15:04 69.6 °F /  20.9 °C 47.3 °F /  8.5 °C 29.6in /  1002.2hPa SO 7.6mph /  12.2km/h 17mph /  27.4km/h 45% 0in /  0.0mm
15:09 70 °F /  21.1 °C 47.3 °F /  8.5 °C 29.6in /  1001.8hPa SO 7.9mph /  12.7km/h 20.7mph /  33.3km/h 44.3% 0in /  0.0mm
15:14 70.5 °F /  21.4 °C 47.1 °F /  8.4 °C 29.6in /  1001.8hPa SSO 8.1mph /  13km/h 21.9mph /  35.2km/h 43.2% 0in /  0.0mm
15:19 70.9 °F /  21.6 °C 46.9 °F /  8.3 °C 29.6in /  1001.8hPa SO 9.5mph /  15.3km/h 22mph /  35.4km/h 42.6% 0in /  0.0mm
15:24 71.1 °F /  21.7 °C 46.8 °F /  8.2 °C 29.6in /  1001.4hPa SO 10.7mph /  17.2km/h 24.2mph /  38.9km/h 41.8% 0in /  0.0mm
15:29 71.4 °F /  21.9 °C 46 °F /  7.8 °C 29.6in /  1001.4hPa SO 11.3mph /  18.2km/h 24mph /  38.6km/h 40.5% 0in /  0.0mm
15:34 72 °F /  22.2 °C 45 °F /  7.2 °C 29.6in /  1001.5hPa OSO 11.8mph /  19km/h 20mph /  32.2km/h 38.1% 0in /  0.0mm
15:39 72.1 °F /  22.3 °C 45.1 °F /  7.3 °C 29.6in /  1001.5hPa OSO 11.2mph /  18km/h 19.6mph /  31.5km/h 38.1% 0in /  0.0mm
15:44 72 °F /  22.2 °C 45.7 °F /  7.6 °C 29.6in /  1001.5hPa OSO 10.7mph /  17.2km/h 20mph /  32.2km/h 39% 0in /  0.0mm
15:49 72 °F /  22.2 °C 45.5 °F /  7.5 °C 29.6in /  1001.5hPa OSO 10.4mph /  16.8km/h 23.7mph /  38.1km/h 38.8% 0in /  0.0mm
15:54 72.1 °F /  22.3 °C 44.2 °F /  6.8 °C 29.6in /  1001.2hPa OSO 10.2mph /  16.4km/h 28.8mph /  46.3km/h 36.9% 0in /  0.0mm
15:59 72.1 °F /  22.3 °C 42.8 °F /  6 °C 29.6in /  1001.2hPa OSO 13mph /  20.9km/h 35.7mph /  57.5km/h 34.6% 0in /  0.0mm
16:04 72.1 °F /  22.3 °C 42.6 °F /  5.9 °C 29.6in /  1001.2hPa OSO 14.7mph /  23.7km/h 36mph /  57.9km/h 34.6% 0in /  0.0mm
16:09 72.1 °F /  22.3 °C 43 °F /  6.1 °C 29.6in /  1001.2hPa SO 15.9mph /  25.6km/h 28mph /  45.1km/h 34.9% 0in /  0.0mm
16:14 72.1 °F /  22.3 °C 42.4 °F /  5.8 °C 29.6in /  1001.2hPa OSO 16.8mph /  27km/h 28.8mph /  46.3km/h 34.3% 0in /  0.0mm
16:19 72.1 °F /  22.3 °C 42.4 °F /  5.8 °C 29.6in /  1001.2hPa SO 16.3mph /  26.2km/h 29mph /  46.7km/h 34.4% 0in /  0.0mm
16:24 72.1 °F /  22.3 °C 42.3 °F /  5.7 °C 29.6in /  1001.1hPa SO 15.9mph /  25.6km/h 26mph /  41.8km/h 34% 0in /  0.0mm
16:29 72.1 °F /  22.3 °C 42.3 °F /  5.7 °C 29.6in /  1001.1hPa OSO 14mph /  22.6km/h 24.2mph /  38.9km/h 34% 0in /  0.0mm
16:34 72.1 °F /  22.3 °C 42.1 °F /  5.6 °C 29.6in /  1001.3hPa SO 12.5mph /  20.1km/h 28.8mph /  46.3km/h 34% 0in /  0.0mm
16:39 72 °F /  22.2 °C 41.9 °F /  5.5 °C 29.6in /  1001.3hPa OSO 13.6mph /  21.9km/h 31.1mph /  50.1km/h 34% 0in /  0.0mm
16:44 71.6 °F /  22 °C 42.3 °F /  5.7 °C 29.6in /  1001.3hPa OSO 14.5mph /  23.3km/h 31mph /  49.9km/h 34.8% 0in /  0.0mm
16:49 71.4 °F /  21.9 °C 41.9 °F /  5.5 °C 29.6in /  1001.3hPa OSO 15.9mph /  25.6km/h 30mph /  48.3km/h 34.4% 0in /  0.0mm
16:54 71.4 °F /  21.9 °C 42.1 °F /  5.6 °C 29.6in /  1001.3hPa OSO 17mph /  27.4km/h 25.3mph /  40.7km/h 34.7% 0in /  0.0mm
16:59 71.2 °F /  21.8 °C 42.3 °F /  5.7 °C 29.6in /  1001.3hPa Oeste 15.2mph /  24.4km/h 25mph /  40.2km/h 35% 0in /  0.0mm
17:04 71.2 °F /  21.8 °C 42.3 °F /  5.7 °C 29.6in /  1001.6hPa OSO 14mph /  22.5km/h 26.5mph /  42.6km/h 35% 0in /  0.0mm
17:09 71.1 °F /  21.7 °C 41.9 °F /  5.5 °C 29.6in /  1001.6hPa Oeste 13mph /  21km/h 27.6mph /  44.4km/h 35% 0in /  0.0mm
17:14 70.7 °F /  21.5 °C 41.7 °F /  5.4 °C 29.6in /  1001.6hPa Oeste 12.3mph /  19.8km/h 28mph /  45.1km/h 35.1% 0in /  0.0mm
17:19 70.5 °F /  21.4 °C 41.7 °F /  5.4 °C 29.6in /  1001.7hPa Oeste 13.6mph /  21.9km/h 26mph /  41.8km/h 35.3% 0in /  0.0mm
17:24 70.3 °F /  21.3 °C 42.1 °F /  5.6 °C 29.6in /  1001.7hPa Oeste 14.7mph /  23.7km/h 25mph /  40.2km/h 36% 0in /  0.0mm
17:29 70.2 °F /  21.2 °C 41.9 °F /  5.5 °C 29.6in /  1001.7hPa OSO 14mph /  22.6km/h 25mph /  40.2km/h 36% 0in /  0.0mm
17:34 70.2 °F /  21.2 °C 42.3 °F /  5.7 °C 29.6in /  1002.0hPa SO 13.5mph /  21.7km/h 21mph /  33.8km/h 36.4% 0in /  0.0mm
17:39 69.8 °F /  21 °C 42.4 °F /  5.8 °C 29.6in /  1002.0hPa SO 12.9mph /  20.7km/h 23.5mph /  37.8km/h 37% 0in /  0.0mm
17:44 69.4 °F /  20.8 °C 42.3 °F /  5.7 °C 29.6in /  1002.0hPa OSO 12.3mph /  19.8km/h 29.9mph /  48.1km/h 37.5% 0in /  0.0mm
17:49 69.1 °F /  20.6 °C 42.4 °F /  5.8 °C 29.6in /  1002.3hPa OSO 13.5mph /  21.8km/h 30mph /  48.3km/h 38% 0in /  0.0mm
17:54 68.7 °F /  20.4 °C 42.6 °F /  5.9 °C 29.6in /  1002.3hPa OSO 14.5mph /  23.3km/h 25mph /  40.2km/h 38.7% 0in /  0.0mm
17:59 68.5 °F /  20.3 °C 42.6 °F /  5.9 °C 29.6in /  1002.3hPa Oeste 13.9mph /  22.4km/h 24mph /  38.6km/h 39% 0in /  0.0mm
18:04 68.4 °F /  20.2 °C 42.4 °F /  5.8 °C 29.6in /  1002.4hPa OSO 13.5mph /  21.7km/h 21mph /  33.8km/h 39% 0in /  0.0mm
18:09 68.4 °F /  20.2 °C 42.4 °F /  5.8 °C 29.6in /  1002.4hPa OSO 11.7mph /  18.9km/h 21mph /  33.8km/h 39.2% 0in /  0.0mm
18:14 68.2 °F /  20.1 °C 42.8 °F /  6 °C 29.6in /  1002.4hPa OSO 10.2mph /  16.4km/h 16mph /  25.7km/h 40% 0in /  0.0mm
18:19 67.8 °F /  19.9 °C 42.4 °F /  5.8 °C 29.6in /  1002.4hPa OSO 9.6mph /  15.5km/h 19mph /  30.6km/h 39.7% 0in /  0.0mm
18:24 67.6 °F /  19.8 °C 42.4 °F /  5.8 °C 29.6in /  1002.4hPa OSO 9.2mph /  14.8km/h 20.8mph /  33.5km/h 39.9% 0in /  0.0mm
18:29 67.6 °F /  19.8 °C 41.7 °F /  5.4 °C 29.6in /  1002.4hPa OSO 10.1mph /  16.2km/h 21mph /  33.8km/h 39% 0in /  0.0mm
18:34 67.6 °F /  19.8 °C 41.7 °F /  5.4 °C 29.6in /  1002.4hPa OSO 10.7mph /  17.2km/h 21mph /  33.8km/h 39% 0in /  0.0mm
18:39 67.5 °F /  19.7 °C 42.1 °F /  5.6 °C 29.6in /  1002.1hPa OSO 10.9mph /  17.6km/h 18.4mph /  29.6km/h 39.8% 0in /  0.0mm
18:44 67.3 °F /  19.6 °C 42.1 °F /  5.6 °C 29.6in /  1002.1hPa OSO 11.2mph /  18km/h 19.2mph /  30.9km/h 40% 0in /  0.0mm
18:49 67.3 °F /  19.6 °C 42.1 °F /  5.6 °C 29.6in /  1002.2hPa SO 10.9mph /  17.6km/h 20mph /  32.2km/h 40% 0in /  0.0mm
18:54 66.9 °F /  19.4 °C 41.9 °F /  5.5 °C 29.6in /  1002.2hPa SO 10.7mph /  17.2km/h 20mph /  32.2km/h 40% 0in /  0.0mm
18:59 66.7 °F /  19.3 °C 41.7 °F /  5.4 °C 29.6in /  1002.2hPa SO 10.1mph /  16.2km/h 16mph /  25.7km/h 40% 0in /  0.0mm
19:04 66.6 °F /  19.2 °C 41.7 °F /  5.4 °C 29.6in /  1002.2hPa SO 9.7mph /  15.6km/h 15mph /  24.1km/h 40.4% 0in /  0.0mm
19:09 66.6 °F /  19.2 °C 42.1 °F /  5.6 °C 29.6in /  1002.0hPa SO 8.8mph /  14.2km/h 15mph /  24.1km/h 41% 0in /  0.0mm
19:14 66.4 °F /  19.1 °C 42.1 °F /  5.6 °C 29.6in /  1002.0hPa SO 8.1mph /  13km/h 18.5mph /  29.8km/h 41% 0in /  0.0mm
19:19 66.4 °F /  19.1 °C 42.1 °F /  5.6 °C 29.6in /  1002.2hPa SO 8.7mph /  14km/h 19mph /  30.6km/h 41% 0in /  0.0mm
19:24 66.4 °F /  19.1 °C 42.1 °F /  5.6 °C 29.6in /  1002.2hPa SO 9.2mph /  14.8km/h 20.7mph /  33.3km/h 41% 0in /  0.0mm
19:29 66.4 °F /  19.1 °C 41.9 °F /  5.5 °C 29.6in /  1002.2hPa SO 9.2mph /  14.8km/h 21mph /  33.8km/h 41% 0in /  0.0mm
19:34 66.2 °F /  19 °C 41.7 °F /  5.4 °C 29.6in /  1002.3hPa SO 9.2mph /  14.8km/h 15mph /  24.1km/h 41% 0in /  0.0mm
19:39 66.2 °F /  19 °C 41.7 °F /  5.4 °C 29.6in /  1002.3hPa SO 8.9mph /  14.4km/h 16.1mph /  25.9km/h 41% 0in /  0.0mm
19:44 66 °F /  18.9 °C 42.1 °F /  5.6 °C 29.6in /  1002.3hPa SO 8.7mph /  14km/h 16mph /  25.7km/h 41.5% 0in /  0.0mm
19:49 65.8 °F /  18.8 °C 42.3 °F /  5.7 °C 29.6in /  1002.3hPa SSO 8.4mph /  13.5km/h 14mph /  22.5km/h 42% 0in /  0.0mm
19:54 65.7 °F /  18.7 °C 42.1 °F /  5.6 °C 29.6in /  1002.3hPa SO 8.1mph /  13km/h 18.5mph /  29.8km/h 42.3% 0in /  0.0mm
19:59 65.5 °F /  18.6 °C 42.4 °F /  5.8 °C 29.6in /  1002.3hPa SO 8.8mph /  14.1km/h 21.9mph /  35.2km/h 43% 0in /  0.0mm
20:04 65.3 °F /  18.5 °C 42.8 °F /  6 °C 29.6in /  1002.3hPa SO 9.2mph /  14.8km/h 23mph /  37km/h 44% 0in /  0.0mm
20:09 64.9 °F /  18.3 °C 43 °F /  6.1 °C 29.6in /  1002.3hPa SO 10.3mph /  16.6km/h 23mph /  37km/h 44.7% 0in /  0.0mm
20:14 64.9 °F /  18.3 °C 43.3 °F /  6.3 °C 29.6in /  1002.3hPa SSO 11.2mph /  18km/h 17mph /  27.4km/h 45.4% 0in /  0.0mm
20:19 64.8 °F /  18.2 °C 43.5 °F /  6.4 °C 29.6in /  1002.3hPa SO 10.1mph /  16.2km/h 16mph /  25.7km/h 46% 0in /  0.0mm
20:24 64.6 °F /  18.1 °C 43.7 °F /  6.5 °C 29.6in /  1002.2hPa SSO 9.2mph /  14.8km/h 18.4mph /  29.6km/h 46.9% 0in /  0.0mm
20:29 64.2 °F /  17.9 °C 43.7 °F /  6.5 °C 29.6in /  1002.2hPa SO 9.4mph /  15.2km/h 18.4mph /  29.6km/h 47.3% 0in /  0.0mm
20:34 64 °F /  17.8 °C 44.1 °F /  6.7 °C 29.6in /  1002.2hPa SSO 9.7mph /  15.6km/h 18mph /  29km/h 48% 0in /  0.0mm
20:39 64 °F /  17.8 °C 43.9 °F /  6.6 °C 29.6in /  1002.1hPa SSO 9mph /  14.5km/h 15mph /  24.1km/h 48% 0in /  0.0mm
20:44 63.9 °F /  17.7 °C 43.9 °F /  6.6 °C 29.6in /  1002.1hPa SSO 8.5mph /  13.7km/h 10.7mph /  17.2km/h 48% 0in /  0.0mm
20:49 63.9 °F /  17.7 °C 43.9 °F /  6.6 °C 29.6in /  1002.1hPa SO 7.2mph /  11.6km/h 13mph /  20.9km/h 48% 0in /  0.0mm
20:54 63.9 °F /  17.7 °C 44.2 °F /  6.8 °C 29.6in /  1002.1hPa SO 6.2mph /  10km/h 18.4mph /  29.6km/h 48.7% 0in /  0.0mm
20:59 63.9 °F /  17.7 °C 44.2 °F /  6.8 °C 29.6in /  1002.1hPa SSO 9mph /  14.5km/h 19mph /  30.6km/h 49% 0in /  0.0mm
21:04 63.9 °F /  17.7 °C 44.2 °F /  6.8 °C 29.6in /  1002.1hPa SSO 10.7mph /  17.2km/h 19mph /  30.6km/h 49% 0in /  0.0mm
21:09 63.9 °F /  17.7 °C 44.2 °F /  6.8 °C 29.6in /  1001.3hPa SO 10.1mph /  16.3km/h 17mph /  27.4km/h 49% 0in /  0.0mm
21:14 63.9 °F /  17.7 °C 44.2 °F /  6.8 °C 29.6in /  1001.3hPa SO 9.7mph /  15.6km/h 17.3mph /  27.8km/h 49% 0in /  0.0mm
21:19 64 °F /  17.8 °C 43.9 °F /  6.6 °C 29.6in /  1001.6hPa SO 9.4mph /  15.2km/h 17.3mph /  27.8km/h 48.1% 0in /  0.0mm
21:24 64 °F /  17.8 °C 43.9 °F /  6.6 °C 29.6in /  1001.6hPa SO 9.2mph /  14.8km/h 15mph /  24.1km/h 48% 0in /  0.0mm
21:29 64 °F /  17.8 °C 43.9 °F /  6.6 °C 29.6in /  1001.6hPa SO 8.6mph /  13.8km/h 14mph /  22.5km/h 48% 0in /  0.0mm
21:34 64 °F /  17.8 °C 43.9 °F /  6.6 °C 29.6in /  1001.9hPa SO 8.1mph /  13km/h 20.7mph /  33.3km/h 48% 0in /  0.0mm
21:39 64 °F /  17.8 °C 43.9 °F /  6.6 °C 29.6in /  1001.9hPa SSO 8.9mph /  14.4km/h 21mph /  33.8km/h 48% 0in /  0.0mm
21:44 64 °F /  17.8 °C 43.9 °F /  6.6 °C 29.6in /  1001.9hPa SSO 9.7mph /  15.6km/h 18.5mph /  29.8km/h 48% 0in /  0.0mm
21:49 64 °F /  17.8 °C 43.9 °F /  6.6 °C 29.6in /  1001.9hPa SSO 10.3mph /  16.5km/h 19.6mph /  31.5km/h 48.1% 0in /  0.0mm
21:54 63.9 °F /  17.7 °C 44.2 °F /  6.8 °C 29.6in /  1001.9hPa SO 10.7mph /  17.2km/h 20mph /  32.2km/h 49% 0in /  0.0mm
21:59 63.7 °F /  17.6 °C 44.1 °F /  6.7 °C 29.6in /  1001.9hPa SSO 10.1mph /  16.2km/h 15mph /  24.1km/h 49% 0in /  0.0mm
22:04 63.3 °F /  17.4 °C 43.9 °F /  6.6 °C 29.6in /  1002.1hPa SSO 9.7mph /  15.6km/h 15mph /  24.1km/h 49.1% 0in /  0.0mm
22:09 63.3 °F /  17.4 °C 44.2 °F /  6.8 °C 29.6in /  1002.1hPa SO 8.1mph /  13.1km/h 13mph /  20.9km/h 49.7% 0in /  0.0mm
22:14 63.3 °F /  17.4 °C 43.9 °F /  6.6 °C 29.6in /  1002.1hPa SSO 6.9mph /  11.1km/h 13mph /  20.9km/h 49% 0in /  0.0mm
22:19 63.3 °F /  17.4 °C 43.9 °F /  6.6 °C 29.6in /  1002.1hPa SSO 7.1mph /  11.5km/h 15mph /  24.1km/h 49% 0in /  0.0mm
22:24 63.5 °F /  17.5 °C 43.9 °F /  6.6 °C 29.6in /  1002.1hPa SO 7.4mph /  11.9km/h 15mph /  24.1km/h 48.8% 0in /  0.0mm
22:29 63.7 °F /  17.6 °C 43.5 °F /  6.4 °C 29.6in /  1002.1hPa SO 7.5mph /  12.1km/h 14mph /  22.5km/h 48% 0in /  0.0mm
22:34 63.9 °F /  17.7 °C 43.9 °F /  6.6 °C 29.6in /  1002.1hPa SSO 7.6mph /  12.2km/h 14mph /  22.5km/h 48% 0in /  0.0mm
22:39 63.9 °F /  17.7 °C 43.5 °F /  6.4 °C 29.6in /  1002.0hPa SSO 7.6mph /  12.2km/h 13.8mph /  22.2km/h 47.4% 0in /  0.0mm
22:44 64 °F /  17.8 °C 43.3 °F /  6.3 °C 29.6in /  1002.0hPa SSO 7.6mph /  12.2km/h 16.3mph /  26.2km/h 46.8% 0in /  0.0mm
22:49 64.4 °F /  18 °C 43.2 °F /  6.2 °C 29.6in /  1002.0hPa SSO 8.5mph /  13.7km/h 17.5mph /  28.2km/h 46% 0in /  0.0mm
22:54 64.4 °F /  18 °C 43.2 °F /  6.2 °C 29.6in /  1001.9hPa SSO 9.2mph /  14.8km/h 17.3mph /  27.8km/h 46% 0in /  0.0mm
22:59 64.2 °F /  17.9 °C 43 °F /  6.1 °C 29.6in /  1001.9hPa SO 8.9mph /  14.3km/h 15mph /  24.1km/h 46% 0in /  0.0mm
23:04 64.2 °F /  17.9 °C 43 °F /  6.1 °C 29.6in /  1001.9hPa SSO 8.7mph /  14km/h 16.8mph /  27km/h 46% 0in /  0.0mm
23:09 64.2 °F /  17.9 °C 43 °F /  6.1 °C 29.6in /  1001.6hPa SSO 9.3mph /  14.9km/h 17.3mph /  27.8km/h 46% 0in /  0.0mm
23:14 64.2 °F /  17.9 °C 43.2 °F /  6.2 °C 29.6in /  1001.6hPa Sur 9.7mph /  15.6km/h 17mph /  27.4km/h 46% 0in /  0.0mm
23:19 64.2 °F /  17.9 °C 43 °F /  6.1 °C 29.6in /  1001.6hPa Sur 9mph /  14.5km/h 15mph /  24.1km/h 46% 0in /  0.0mm
23:24 64.2 °F /  17.9 °C 43 °F /  6.1 °C 29.6in /  1001.3hPa SSO 8.5mph /  13.7km/h 15.2mph /  24.5km/h 46% 0in /  0.0mm
23:29 64.2 °F /  17.9 °C 43.2 °F /  6.2 °C 29.6in /  1001.3hPa SSO 8.3mph /  13.3km/h 15mph /  24.1km/h 46.4% 0in /  0.0mm
23:34 64 °F /  17.8 °C 43.5 °F /  6.4 °C 29.6in /  1001.3hPa SSO 8.1mph /  13km/h 13mph /  20.9km/h 47% 0in /  0.0mm
23:39 64 °F /  17.8 °C 43.3 °F /  6.3 °C 29.6in /  1001.2hPa SSO 7.8mph /  12.6km/h 12mph /  19.3km/h 47% 0in /  0.0mm
23:44 64 °F /  17.8 °C 43.3 °F /  6.3 °C 29.6in /  1001.2hPa Sur 7.6mph /  12.2km/h 12mph /  19.3km/h 47% 0in /  0.0mm
23:49 63.9 °F /  17.7 °C 43.7 °F /  6.5 °C 29.6in /  1001.2hPa SSO 6.8mph /  11km/h 11.2mph /  18km/h 47.6% 0in /  0.0mm
23:54 64 °F /  17.8 °C 43.9 °F /  6.6 °C 29.6in /  1000.9hPa SSO 6.2mph /  10km/h 13.8mph /  22.2km/h 48% 0in /  0.0mm
23:59 64 °F /  17.8 °C 43.9 °F /  6.6 °C 29.6in /  1000.9hPa SSO 7.3mph /  11.8km/h 14mph /  22.5km/h 48% 0in /  0.0mm
Murcia-Puente Tocinos, Espa?a
Compliments of Weather Underground - 3.25 mb

La estación de MeteoMurcia.com, publica sus datos en los siguientes proyectos:

Weather Underground PWS IMURCIAP2 Meteoclimatic www.awekas.at

W3Counter
Web Analytics